Airport View

Enter AWOS ICAO identifier for current METAR.

ex. KFNL

K3AU 251055Z AUTO 02007KT 10SM OVC012 03/01 A3011 RMK AO2

25 Oct 2020 11:20

Frequency: 124.175

Phone: 316-733-6696

Other Area AWOS: K1K1 - KBEC - KAAO - KIAB

TAF KIAB 250900Z 2509/2615 05009KT 9999 SCT010 OVC020 620202 QNH3006INS BECMG 2520/2521 01012G18KT 8000 -SHRA BKN015 QNH3008INS BECMG 2602/2603 01015G20KT 8000 -FZDZ BKN006 660001 650066 520803 QNH3018INS BECMG 2605/2606 01020G25KT 8000 -FZRA OVC006 690001 650066 520433 QNH3027INS TX04/2519Z TNM01/2607Z LAST NO AMDS AFT 2509 NEXT 2610